Finley, ND (58230)

3:25 AM CDT on April 19, 2015 (GMT -0500)
Grand Forks Air Force Base | | Change Station
CLOSE
Current Station
Airport
Location: Grand Forks AFB,
Elevation: 912 ft
Nearby Weather Stations

Elev 912 ft 47.96 °N, 97.40 °W | Updated 27 minutes ago

Rain
Rain
50 °F
Feels Like 50 °F
N
6
Wind Variable Wind from NW

Today
High -- | Low -- °F
--% Chance of Precip.
Yesterday
High -- | Low -- °F
Precip. -- in
6:35 AM 8:25 PM
New Moon, 0% visible
Pressure 29.80 in
Visibility 10.0 miles
Clouds Few 3600 ft
Mostly Cloudy 5500 ft
Overcast 7000 ft
Dew Point 45 °F
Humidity 81%
Rainfall 0.01 in
Snow Depth Not available.
UV 0 out of 12
Pollen 9.50 out of 12
Air Quality Not available.
Flu Activity Regional
METAR KRDR 190758Z AUTO 31005KT 10SM -DZ FEW036 BKN055 OVC070 10/07 A2978 RMK AO2 DZE0658RAB0658E21DZB21E24RAB24E33DZB33E41DZB52 SLP090 P0001 T01010070

More Conditions Fewer Conditions

Pressure 29.80 in
Visibility 10.0 miles
Clouds Few 3600 ft
Mostly Cloudy 5500 ft
Overcast 7000 ft
Dew Point 45 °F
Humidity 81%
Rainfall 0.01 in
Snow Depth Not available.
UV 0 out of 12
Pollen 9.50 out of 12
Air Quality Not available.
Flu Activity Regional
METAR KRDR 190758Z AUTO 31005KT 10SM -DZ FEW036 BKN055 OVC070 10/07 A2978 RMK AO2 DZE0658RAB0658E21DZB21E24RAB24E33DZB33E41DZB52 SLP090 P0001 T01010070

More Conditions Fewer Conditions

10-Day Weather Forecast

Almanac

Astronomy

Apr. 19, 2015 Rise Set
Actual Time
Civil Twilight
Nautical Twilight
Astronomical Twilight
Moon
Length of Visible Light
Length of Day
Tomorrow will be .
, % of the Moon is Illuminated

Today's Extremes

State Highs State Lows

Community

WunderPhotos

Upload Photos

1,814,723 photos uploaded!

WunderBlogs® & News

Nearby

Air Quality

  Air Quality AQ Index Pollutant
Not available.

Snow Depth

Station Depth Elevation

Earthquake Activity

City Distance Mag. Time & Date
Minimum magnitude displayed is 2.5.

Coastal Water Temperatures

Place Temperature

Stations

Nearby Weather Stations

Station Location Temp. Windchill Dew Point Humidity Wind Precip. Elev Updated Type